sensor_id;sensor_type;location;lat;lon;timestamp;temperature;humidity
36690;DHT22;22676;51.120;3.702;2023-02-01T00:01:20;22.90;38.50
36690;DHT22;22676;51.120;3.702;2023-02-01T00:03:45;22.90;38.30
36690;DHT22;22676;51.120;3.702;2023-02-01T00:06:11;22.90;38.30
36690;DHT22;22676;51.120;3.702;2023-02-01T00:08:36;22.90;38.30
36690;DHT22;22676;51.120;3.702;2023-02-01T00:11:03;22.80;38.10
36690;DHT22;22676;51.120;3.702;2023-02-01T00:13:30;22.80;38.10
36690;DHT22;22676;51.120;3.702;2023-02-01T00:16:02;22.80;38.20
36690;DHT22;22676;51.120;3.702;2023-02-01T00:18:27;22.80;38.10
36690;DHT22;22676;51.120;3.702;2023-02-01T00:20:53;22.80;38.20
36690;DHT22;22676;51.120;3.702;2023-02-01T00:23:18;22.70;38.20
36690;DHT22;22676;51.120;3.702;2023-02-01T00:25:44;22.70;38.20
36690;DHT22;22676;51.120;3.702;2023-02-01T00:28:09;22.70;38.10
36690;DHT22;22676;51.120;3.702;2023-02-01T00:30:35;22.60;38.00
36690;DHT22;22676;51.120;3.702;2023-02-01T00:33:00;22.60;38.10
36690;DHT22;22676;51.120;3.702;2023-02-01T00:35:26;22.60;37.90
36690;DHT22;22676;51.120;3.702;2023-02-01T00:37:51;22.60;37.90
36690;DHT22;22676;51.120;3.702;2023-02-01T00:40:17;22.60;37.80
36690;DHT22;22676;51.120;3.702;2023-02-01T00:42:42;22.60;37.90
36690;DHT22;22676;51.120;3.702;2023-02-01T00:45:08;22.60;37.90
36690;DHT22;22676;51.120;3.702;2023-02-01T00:47:34;22.60;37.90
36690;DHT22;22676;51.120;3.702;2023-02-01T00:49:59;22.50;37.90
36690;DHT22;22676;51.120;3.702;2023-02-01T00:52:26;22.60;37.90
36690;DHT22;22676;51.120;3.702;2023-02-01T00:54:51;22.50;37.70
36690;DHT22;22676;51.120;3.702;2023-02-01T00:57:17;22.60;37.80
36690;DHT22;22676;51.120;3.702;2023-02-01T00:59:42;22.50;37.80
36690;DHT22;22676;51.120;3.702;2023-02-01T01:02:08;22.40;38.10
36690;DHT22;22676;51.120;3.702;2023-02-01T01:04:33;22.50;38.10
36690;DHT22;22676;51.120;3.702;2023-02-01T01:06:59;22.50;37.90
36690;DHT22;22676;51.120;3.702;2023-02-01T01:09:24;22.40;37.90
36690;DHT22;22676;51.120;3.702;2023-02-01T01:11:50;22.40;37.90
36690;DHT22;22676;51.120;3.702;2023-02-01T01:14:18;22.50;38.00
36690;DHT22;22676;51.120;3.702;2023-02-01T01:16:43;22.40;37.80
36690;DHT22;22676;51.120;3.702;2023-02-01T01:19:09;22.40;37.80
36690;DHT22;22676;51.120;3.702;2023-02-01T01:21:34;22.40;37.60
36690;DHT22;22676;51.120;3.702;2023-02-01T01:24:00;22.40;37.60
36690;DHT22;22676;51.120;3.702;2023-02-01T01:26:26;22.40;37.60
36690;DHT22;22676;51.120;3.702;2023-02-01T01:28:54;22.40;37.60
36690;DHT22;22676;51.120;3.702;2023-02-01T01:31:19;22.40;37.50
36690;DHT22;22676;51.120;3.702;2023-02-01T01:33:49;22.30;37.60
36690;DHT22;22676;51.120;3.702;2023-02-01T01:36:15;22.30;37.50
36690;DHT22;22676;51.120;3.702;2023-02-01T01:38:41;22.30;37.60
36690;DHT22;22676;51.120;3.702;2023-02-01T01:41:07;22.30;37.50
36690;DHT22;22676;51.120;3.702;2023-02-01T01:43:46;22.30;37.50
36690;DHT22;22676;51.120;3.702;2023-02-01T01:46:23;22.30;37.40
36690;DHT22;22676;51.120;3.702;2023-02-01T01:48:50;22.30;37.40
36690;DHT22;22676;51.120;3.702;2023-02-01T01:51:18;22.30;37.40
36690;DHT22;22676;51.120;3.702;2023-02-01T01:53:45;22.30;37.40
36690;DHT22;22676;51.120;3.702;2023-02-01T01:56:12;22.20;38.00
36690;DHT22;22676;51.120;3.702;2023-02-01T01:58:38;22.20;37.40
36690;DHT22;22676;51.120;3.702;2023-02-01T02:01:03;22.20;37.20
36690;DHT22;22676;51.120;3.702;2023-02-01T02:03:38;22.20;37.30
36690;DHT22;22676;51.120;3.702;2023-02-01T02:06:04;22.20;37.30
36690;DHT22;22676;51.120;3.702;2023-02-01T02:08:33;22.10;37.20
36690;DHT22;22676;51.120;3.702;2023-02-01T02:10:58;22.10;37.30
36690;DHT22;22676;51.120;3.702;2023-02-01T02:13:27;22.10;37.20
36690;DHT22;22676;51.120;3.702;2023-02-01T02:18:47;22.00;37.40
36690;DHT22;22676;51.120;3.702;2023-02-01T02:24:08;22.00;37.20
36690;DHT22;22676;51.120;3.702;2023-02-01T02:29:27;22.00;37.10
36690;DHT22;22676;51.120;3.702;2023-02-01T02:32:03;22.00;37.20
36690;DHT22;22676;51.120;3.702;2023-02-01T02:53:11;21.90;37.20
36690;DHT22;22676;51.120;3.702;2023-02-01T02:55:57;21.80;37.20
36690;DHT22;22676;51.120;3.702;2023-02-01T02:58:41;21.90;37.20
36690;DHT22;22676;51.120;3.702;2023-02-01T03:01:26;21.90;37.10
36690;DHT22;22676;51.120;3.702;2023-02-01T03:04:11;21.80;37.10
36690;DHT22;22676;51.120;3.702;2023-02-01T03:06:42;21.70;37.90
36690;DHT22;22676;51.120;3.702;2023-02-01T03:09:10;21.60;37.30
36690;DHT22;22676;51.120;3.702;2023-02-01T03:11:37;21.50;37.30
36690;DHT22;22676;51.120;3.702;2023-02-01T03:14:22;21.50;37.40
36690;DHT22;22676;51.120;3.702;2023-02-01T03:16:54;21.50;37.60
36690;DHT22;22676;51.120;3.702;2023-02-01T03:19:24;21.40;37.60
36690;DHT22;22676;51.120;3.702;2023-02-01T03:21:55;21.40;37.60
36690;DHT22;22676;51.120;3.702;2023-02-01T03:24:26;21.40;37.60
36690;DHT22;22676;51.120;3.702;2023-02-01T03:27:01;21.40;37.60
36690;DHT22;22676;51.120;3.702;2023-02-01T03:29:29;21.30;37.70
36690;DHT22;22676;51.120;3.702;2023-02-01T03:31:56;21.30;37.70
36690;DHT22;22676;51.120;3.702;2023-02-01T03:34:21;21.20;37.80
36690;DHT22;22676;51.120;3.702;2023-02-01T03:36:51;21.20;37.90
36690;DHT22;22676;51.120;3.702;2023-02-01T03:39:29;21.20;37.90
36690;DHT22;22676;51.120;3.702;2023-02-01T03:41:57;21.10;37.90
36690;DHT22;22676;51.120;3.702;2023-02-01T03:47:23;21.00;38.10
36690;DHT22;22676;51.120;3.702;2023-02-01T03:49:51;21.00;38.10
36690;DHT22;22676;51.120;3.702;2023-02-01T03:52:19;20.90;38.10
36690;DHT22;22676;51.120;3.702;2023-02-01T03:54:45;20.90;38.20
36690;DHT22;22676;51.120;3.702;2023-02-01T03:57:12;20.90;38.20
36690;DHT22;22676;51.120;3.702;2023-02-01T03:59:39;20.90;38.20
36690;DHT22;22676;51.120;3.702;2023-02-01T04:02:05;20.80;38.20
36690;DHT22;22676;51.120;3.702;2023-02-01T04:04:30;20.80;38.30
36690;DHT22;22676;51.120;3.702;2023-02-01T04:06:56;20.80;38.30
36690;DHT22;22676;51.120;3.702;2023-02-01T04:09:22;20.70;38.30
36690;DHT22;22676;51.120;3.702;2023-02-01T04:11:47;20.70;38.30
36690;DHT22;22676;51.120;3.702;2023-02-01T04:14:13;20.60;38.30
36690;DHT22;22676;51.120;3.702;2023-02-01T04:16:38;20.70;38.40
36690;DHT22;22676;51.120;3.702;2023-02-01T04:19:04;20.70;38.30
36690;DHT22;22676;51.120;3.702;2023-02-01T04:21:29;20.60;38.30
36690;DHT22;22676;51.120;3.702;2023-02-01T04:23:55;20.60;38.30
36690;DHT22;22676;51.120;3.702;2023-02-01T04:26:20;20.60;38.30
36690;DHT22;22676;51.120;3.702;2023-02-01T04:28:46;20.60;38.30
36690;DHT22;22676;51.120;3.702;2023-02-01T04:31:16;20.60;38.30
36690;DHT22;22676;51.120;3.702;2023-02-01T04:33:44;20.60;38.30
36690;DHT22;22676;51.120;3.702;2023-02-01T04:36:09;20.60;38.30
36690;DHT22;22676;51.120;3.702;2023-02-01T04:38:35;20.60;38.30
36690;DHT22;22676;51.120;3.702;2023-02-01T04:41:00;20.50;38.30
36690;DHT22;22676;51.120;3.702;2023-02-01T04:43:26;20.50;38.30
36690;DHT22;22676;51.120;3.702;2023-02-01T04:45:52;20.50;38.20
36690;DHT22;22676;51.120;3.702;2023-02-01T04:48:19;20.50;38.20
36690;DHT22;22676;51.120;3.702;2023-02-01T04:50:45;20.50;38.20
36690;DHT22;22676;51.120;3.702;2023-02-01T04:53:16;20.50;38.20
36690;DHT22;22676;51.120;3.702;2023-02-01T04:55:42;20.50;38.20
36690;DHT22;22676;51.120;3.702;2023-02-01T04:58:07;20.50;38.20
36690;DHT22;22676;51.120;3.702;2023-02-01T05:00:33;20.50;38.20
36690;DHT22;22676;51.120;3.702;2023-02-01T05:02:59;20.40;38.70
36690;DHT22;22676;51.120;3.702;2023-02-01T05:05:24;20.40;38.60
36690;DHT22;22676;51.120;3.702;2023-02-01T05:07:50;20.30;38.60
36690;DHT22;22676;51.120;3.702;2023-02-01T05:10:15;20.40;38.40
36690;DHT22;22676;51.120;3.702;2023-02-01T05:12:42;20.40;38.20
36690;DHT22;22676;51.120;3.702;2023-02-01T05:15:26;20.50;38.20
36690;DHT22;22676;51.120;3.702;2023-02-01T05:17:52;20.50;38.00
36690;DHT22;22676;51.120;3.702;2023-02-01T05:20:17;20.50;37.90
36690;DHT22;22676;51.120;3.702;2023-02-01T05:22:43;20.50;37.80
36690;DHT22;22676;51.120;3.702;2023-02-01T05:25:09;20.60;37.70
36690;DHT22;22676;51.120;3.702;2023-02-01T05:27:34;20.70;37.60
36690;DHT22;22676;51.120;3.702;2023-02-01T05:30:00;20.70;37.40
36690;DHT22;22676;51.120;3.702;2023-02-01T05:32:26;20.80;37.30
36690;DHT22;22676;51.120;3.702;2023-02-01T05:34:51;20.90;37.30
36690;DHT22;22676;51.120;3.702;2023-02-01T05:37:17;20.90;37.30
36690;DHT22;22676;51.120;3.702;2023-02-01T05:39:42;21.00;37.30
36690;DHT22;22676;51.120;3.702;2023-02-01T05:42:09;21.00;37.50
36690;DHT22;22676;51.120;3.702;2023-02-01T05:44:34;21.10;37.50
36690;DHT22;22676;51.120;3.702;2023-02-01T05:47:00;21.20;37.50
36690;DHT22;22676;51.120;3.702;2023-02-01T05:49:25;21.30;37.50
36690;DHT22;22676;51.120;3.702;2023-02-01T05:51:51;21.30;38.50
36690;DHT22;22676;51.120;3.702;2023-02-01T05:54:16;21.40;38.70
36690;DHT22;22676;51.120;3.702;2023-02-01T05:56:42;21.50;38.80
36690;DHT22;22676;51.120;3.702;2023-02-01T05:59:08;21.60;38.90
36690;DHT22;22676;51.120;3.702;2023-02-01T06:01:34;21.80;38.50
36690;DHT22;22676;51.120;3.702;2023-02-01T06:03:59;22.00;38.30
36690;DHT22;22676;51.120;3.702;2023-02-01T06:06:25;22.20;38.00
36690;DHT22;22676;51.120;3.702;2023-02-01T06:08:50;22.30;37.90
36690;DHT22;22676;51.120;3.702;2023-02-01T06:11:16;22.40;37.80
36690;DHT22;22676;51.120;3.702;2023-02-01T06:13:41;22.60;37.50
36690;DHT22;22676;51.120;3.702;2023-02-01T06:16:07;22.80;37.20
36690;DHT22;22676;51.120;3.702;2023-02-01T06:18:36;22.80;37.20
36690;DHT22;22676;51.120;3.702;2023-02-01T06:21:02;22.90;37.00
36690;DHT22;22676;51.120;3.702;2023-02-01T06:23:28;23.00;37.00
36690;DHT22;22676;51.120;3.702;2023-02-01T06:28:26;23.10;36.90
36690;DHT22;22676;51.120;3.702;2023-02-01T06:30:52;23.20;36.80
36690;DHT22;22676;51.120;3.702;2023-02-01T06:33:17;23.30;36.70
36690;DHT22;22676;51.120;3.702;2023-02-01T06:35:43;23.30;36.70
36690;DHT22;22676;51.120;3.702;2023-02-01T06:38:12;23.40;36.70
36690;DHT22;22676;51.120;3.702;2023-02-01T06:40:38;23.50;36.50
36690;DHT22;22676;51.120;3.702;2023-02-01T06:43:04;23.50;36.50
36690;DHT22;22676;51.120;3.702;2023-02-01T06:45:29;23.70;35.00
36690;DHT22;22676;51.120;3.702;2023-02-01T06:47:55;24.00;34.00
36690;DHT22;22676;51.120;3.702;2023-02-01T06:50:20;24.10;33.80
36690;DHT22;22676;51.120;3.702;2023-02-01T06:52:46;23.80;35.60
36690;DHT22;22676;51.120;3.702;2023-02-01T06:55:12;23.70;36.10
36690;DHT22;22676;51.120;3.702;2023-02-01T06:57:38;23.60;36.20
36690;DHT22;22676;51.120;3.702;2023-02-01T07:00:04;23.70;36.20
36690;DHT22;22676;51.120;3.702;2023-02-01T07:02:30;23.80;36.00
36690;DHT22;22676;51.120;3.702;2023-02-01T07:04:55;23.90;36.00
36690;DHT22;22676;51.120;3.702;2023-02-01T07:07:21;23.90;35.90
36690;DHT22;22676;51.120;3.702;2023-02-01T07:09:48;24.00;35.80
36690;DHT22;22676;51.120;3.702;2023-02-01T07:12:14;24.10;35.70
36690;DHT22;22676;51.120;3.702;2023-02-01T07:14:39;24.10;35.70
36690;DHT22;22676;51.120;3.702;2023-02-01T07:17:05;24.20;35.70
36690;DHT22;22676;51.120;3.702;2023-02-01T07:19:31;24.30;35.70
36690;DHT22;22676;51.120;3.702;2023-02-01T07:21:56;24.30;35.60
36690;DHT22;22676;51.120;3.702;2023-02-01T07:24:22;24.40;35.50
36690;DHT22;22676;51.120;3.702;2023-02-01T07:26:47;24.40;35.50
36690;DHT22;22676;51.120;3.702;2023-02-01T07:29:14;24.50;35.40
36690;DHT22;22676;51.120;3.702;2023-02-01T07:31:39;24.50;35.40
36690;DHT22;22676;51.120;3.702;2023-02-01T07:34:05;24.50;35.40
36690;DHT22;22676;51.120;3.702;2023-02-01T07:36:30;24.60;35.30
36690;DHT22;22676;51.120;3.702;2023-02-01T07:38:57;24.70;35.20
36690;DHT22;22676;51.120;3.702;2023-02-01T07:41:22;24.70;35.20
36690;DHT22;22676;51.120;3.702;2023-02-01T07:43:48;24.70;35.10
36690;DHT22;22676;51.120;3.702;2023-02-01T07:46:15;25.00;33.20
36690;DHT22;22676;51.120;3.702;2023-02-01T07:48:41;25.20;32.80
36690;DHT22;22676;51.120;3.702;2023-02-01T07:51:14;25.10;33.60
36690;DHT22;22676;51.120;3.702;2023-02-01T07:53:40;24.90;34.30
36690;DHT22;22676;51.120;3.702;2023-02-01T07:56:16;24.90;34.40
36690;DHT22;22676;51.120;3.702;2023-02-01T07:58:42;24.90;34.40
36690;DHT22;22676;51.120;3.702;2023-02-01T08:01:13;24.90;34.40
36690;DHT22;22676;51.120;3.702;2023-02-01T08:03:45;24.80;34.30
36690;DHT22;22676;51.120;3.702;2023-02-01T08:06:10;24.90;34.50
36690;DHT22;22676;51.120;3.702;2023-02-01T08:08:36;24.80;34.40
36690;DHT22;22676;51.120;3.702;2023-02-01T08:11:02;24.80;34.50
36690;DHT22;22676;51.120;3.702;2023-02-01T08:13:28;24.80;34.50
36690;DHT22;22676;51.120;3.702;2023-02-01T08:16:01;24.70;34.60
36690;DHT22;22676;51.120;3.702;2023-02-01T08:18:26;24.70;34.60
36690;DHT22;22676;51.120;3.702;2023-02-01T08:20:52;24.60;34.70
36690;DHT22;22676;51.120;3.702;2023-02-01T08:23:18;24.50;34.70
36690;DHT22;22676;51.120;3.702;2023-02-01T08:25:44;24.50;34.90
36690;DHT22;22676;51.120;3.702;2023-02-01T08:28:10;24.50;34.90
36690;DHT22;22676;51.120;3.702;2023-02-01T08:30:36;24.40;35.00
36690;DHT22;22676;51.120;3.702;2023-02-01T08:33:03;24.40;34.90
36690;DHT22;22676;51.120;3.702;2023-02-01T08:35:31;24.40;34.90
36690;DHT22;22676;51.120;3.702;2023-02-01T08:37:56;24.40;34.80
36690;DHT22;22676;51.120;3.702;2023-02-01T08:40:22;24.40;34.90
36690;DHT22;22676;51.120;3.702;2023-02-01T08:42:47;24.40;34.90
36690;DHT22;22676;51.120;3.702;2023-02-01T08:45:16;24.50;34.30
36690;DHT22;22676;51.120;3.702;2023-02-01T08:47:42;24.50;33.60
36690;DHT22;22676;51.120;3.702;2023-02-01T08:50:08;24.40;33.80
36690;DHT22;22676;51.120;3.702;2023-02-01T08:52:34;24.10;35.00
36690;DHT22;22676;51.120;3.702;2023-02-01T08:54:59;23.80;35.50
36690;DHT22;22676;51.120;3.702;2023-02-01T08:57:25;23.80;35.90
36690;DHT22;22676;51.120;3.702;2023-02-01T08:59:50;23.80;35.90
36690;DHT22;22676;51.120;3.702;2023-02-01T09:02:16;23.80;35.90
36690;DHT22;22676;51.120;3.702;2023-02-01T09:04:42;23.90;35.70
36690;DHT22;22676;51.120;3.702;2023-02-01T09:07:08;24.00;35.60
36690;DHT22;22676;51.120;3.702;2023-02-01T09:09:34;24.00;35.70
36690;DHT22;22676;51.120;3.702;2023-02-01T09:12:00;24.00;35.70
36690;DHT22;22676;51.120;3.702;2023-02-01T09:14:25;24.00;35.80
36690;DHT22;22676;51.120;3.702;2023-02-01T09:16:51;24.00;35.70
36690;DHT22;22676;51.120;3.702;2023-02-01T09:19:16;24.00;35.70
36690;DHT22;22676;51.120;3.702;2023-02-01T09:21:42;24.00;35.70
36690;DHT22;22676;51.120;3.702;2023-02-01T09:24:09;24.00;35.70
36690;DHT22;22676;51.120;3.702;2023-02-01T09:26:36;24.00;35.70
36690;DHT22;22676;51.120;3.702;2023-02-01T09:29:01;24.00;35.70
36690;DHT22;22676;51.120;3.702;2023-02-01T09:31:27;23.90;36.10
36690;DHT22;22676;51.120;3.702;2023-02-01T09:33:52;23.90;36.10
36690;DHT22;22676;51.120;3.702;2023-02-01T09:36:18;23.90;36.10
36690;DHT22;22676;51.120;3.702;2023-02-01T09:38:45;23.90;36.80
36690;DHT22;22676;51.120;3.702;2023-02-01T09:41:24;23.80;36.20
36690;DHT22;22676;51.120;3.702;2023-02-01T09:46:27;23.70;36.10
36690;DHT22;22676;51.120;3.702;2023-02-01T09:48:54;23.70;36.00
36690;DHT22;22676;51.120;3.702;2023-02-01T09:51:21;23.70;36.10
36690;DHT22;22676;51.120;3.702;2023-02-01T09:53:54;23.70;36.40
36690;DHT22;22676;51.120;3.702;2023-02-01T09:56:21;23.70;36.20
36690;DHT22;22676;51.120;3.702;2023-02-01T09:58:53;23.80;36.30
36690;DHT22;22676;51.120;3.702;2023-02-01T10:01:21;23.80;36.10
36690;DHT22;22676;51.120;3.702;2023-02-01T10:03:47;23.80;36.10
36690;DHT22;22676;51.120;3.702;2023-02-01T10:14:07;23.80;36.20
36690;DHT22;22676;51.120;3.702;2023-02-01T10:16:49;23.90;35.90
36690;DHT22;22676;51.120;3.702;2023-02-01T10:21:51;23.90;35.90
36690;DHT22;22676;51.120;3.702;2023-02-01T10:27:06;24.10;35.90
36690;DHT22;22676;51.120;3.702;2023-02-01T10:29:34;24.10;36.00
36690;DHT22;22676;51.120;3.702;2023-02-01T10:32:02;24.00;36.10
36690;DHT22;22676;51.120;3.702;2023-02-01T10:34:30;24.00;35.80
36690;DHT22;22676;51.120;3.702;2023-02-01T10:36:58;24.00;35.90
36690;DHT22;22676;51.120;3.702;2023-02-01T10:39:25;24.10;35.90
36690;DHT22;22676;51.120;3.702;2023-02-01T10:41:50;24.10;35.80
36690;DHT22;22676;51.120;3.702;2023-02-01T10:44:20;24.20;35.60
36690;DHT22;22676;51.120;3.702;2023-02-01T10:46:48;24.20;35.60
36690;DHT22;22676;51.120;3.702;2023-02-01T10:49:16;24.10;35.30
36690;DHT22;22676;51.120;3.702;2023-02-01T10:51:44;24.00;35.60
36690;DHT22;22676;51.120;3.702;2023-02-01T10:54:14;23.90;35.60
36690;DHT22;22676;51.120;3.702;2023-02-01T10:56:42;23.90;35.70
36690;DHT22;22676;51.120;3.702;2023-02-01T10:59:14;24.00;35.80
36690;DHT22;22676;51.120;3.702;2023-02-01T11:01:41;24.10;35.70
36690;DHT22;22676;51.120;3.702;2023-02-01T11:04:09;24.20;35.90
36690;DHT22;22676;51.120;3.702;2023-02-01T11:14:17;24.10;35.60
36690;DHT22;22676;51.120;3.702;2023-02-01T11:16:47;24.10;35.40
36690;DHT22;22676;51.120;3.702;2023-02-01T11:19:13;24.20;36.10
36690;DHT22;22676;51.120;3.702;2023-02-01T11:21:39;24.30;35.70
36690;DHT22;22676;51.120;3.702;2023-02-01T11:24:11;24.30;35.60
36690;DHT22;22676;51.120;3.702;2023-02-01T11:26:43;24.40;35.30
36690;DHT22;22676;51.120;3.702;2023-02-01T11:29:10;24.20;35.50
36690;DHT22;22676;51.120;3.702;2023-02-01T11:31:36;24.10;35.60
36690;DHT22;22676;51.120;3.702;2023-02-01T11:34:12;24.20;35.80
36690;DHT22;22676;51.120;3.702;2023-02-01T11:36:39;24.20;35.70
36690;DHT22;22676;51.120;3.702;2023-02-01T11:41:44;24.40;35.80
36690;DHT22;22676;51.120;3.702;2023-02-01T11:44:21;24.40;35.20
36690;DHT22;22676;51.120;3.702;2023-02-01T11:46:47;24.30;34.70
36690;DHT22;22676;51.120;3.702;2023-02-01T11:49:20;24.20;34.60
36690;DHT22;22676;51.120;3.702;2023-02-01T11:52:03;24.00;34.90
36690;DHT22;22676;51.120;3.702;2023-02-01T11:57:04;23.90;35.60
36690;DHT22;22676;51.120;3.702;2023-02-01T11:59:45;23.90;35.50
36690;DHT22;22676;51.120;3.702;2023-02-01T12:41:20;24.90;36.30
36690;DHT22;22676;51.120;3.702;2023-02-01T12:46:20;25.00;36.10
36690;DHT22;22676;51.120;3.702;2023-02-01T12:48:57;25.00;35.20
36690;DHT22;22676;51.120;3.702;2023-02-01T12:51:28;25.10;35.50
36690;DHT22;22676;51.120;3.702;2023-02-01T12:53:57;25.20;35.80
36690;DHT22;22676;51.120;3.702;2023-02-01T12:58:51;25.40;35.60
36690;DHT22;22676;51.120;3.702;2023-02-01T13:01:36;25.60;35.50
36690;DHT22;22676;51.120;3.702;2023-02-01T13:04:16;25.70;35.40
36690;DHT22;22676;51.120;3.702;2023-02-01T13:06:48;25.80;35.20
36690;DHT22;22676;51.120;3.702;2023-02-01T13:11:40;26.10;34.70
36690;DHT22;22676;51.120;3.702;2023-02-01T13:14:31;26.20;34.70
36690;DHT22;22676;51.120;3.702;2023-02-01T13:16:56;26.30;34.50
36690;DHT22;22676;51.120;3.702;2023-02-01T13:19:30;26.30;34.30
36690;DHT22;22676;51.120;3.702;2023-02-01T13:22:00;26.40;34.30
36690;DHT22;22676;51.120;3.702;2023-02-01T13:24:47;26.30;34.30
36690;DHT22;22676;51.120;3.702;2023-02-01T13:27:13;26.30;34.60
36690;DHT22;22676;51.120;3.702;2023-02-01T13:30:00;26.20;34.70
36690;DHT22;22676;51.120;3.702;2023-02-01T13:32:35;26.20;34.80
36690;DHT22;22676;51.120;3.702;2023-02-01T13:43:11;26.10;35.10
36690;DHT22;22676;51.120;3.702;2023-02-01T13:45:42;26.00;34.80
36690;DHT22;22676;51.120;3.702;2023-02-01T13:48:14;26.10;34.40
36690;DHT22;22676;51.120;3.702;2023-02-01T13:50:43;26.10;34.40
36690;DHT22;22676;51.120;3.702;2023-02-01T13:55:38;26.10;34.30
36690;DHT22;22676;51.120;3.702;2023-02-01T13:58:06;26.10;34.20
36690;DHT22;22676;51.120;3.702;2023-02-01T14:00:36;26.10;34.40
36690;DHT22;22676;51.120;3.702;2023-02-01T14:08:03;26.10;34.60
36690;DHT22;22676;51.120;3.702;2023-02-01T14:23:40;26.00;34.80
36690;DHT22;22676;51.120;3.702;2023-02-01T14:26:06;26.00;34.80
36690;DHT22;22676;51.120;3.702;2023-02-01T14:28:34;26.00;34.80
36690;DHT22;22676;51.120;3.702;2023-02-01T14:31:00;26.10;34.70
36690;DHT22;22676;51.120;3.702;2023-02-01T14:33:40;26.10;34.80
36690;DHT22;22676;51.120;3.702;2023-02-01T14:36:09;26.00;34.70
36690;DHT22;22676;51.120;3.702;2023-02-01T14:38:36;26.00;34.80
36690;DHT22;22676;51.120;3.702;2023-02-01T14:49:12;25.80;34.80
36690;DHT22;22676;51.120;3.702;2023-02-01T14:51:37;25.90;34.70
36690;DHT22;22676;51.120;3.702;2023-02-01T14:54:03;25.90;34.90
36690;DHT22;22676;51.120;3.702;2023-02-01T14:56:29;25.80;34.70
36690;DHT22;22676;51.120;3.702;2023-02-01T14:59:11;25.90;33.90
36690;DHT22;22676;51.120;3.702;2023-02-01T15:01:38;25.80;33.70
36690;DHT22;22676;51.120;3.702;2023-02-01T15:06:40;25.60;34.40
36690;DHT22;22676;51.120;3.702;2023-02-01T15:09:25;25.60;34.50
36690;DHT22;22676;51.120;3.702;2023-02-01T15:14:23;25.60;34.70
36690;DHT22;22676;51.120;3.702;2023-02-01T15:16:49;25.60;34.60
36690;DHT22;22676;51.120;3.702;2023-02-01T15:19:21;25.60;34.50
36690;DHT22;22676;51.120;3.702;2023-02-01T15:21:51;25.60;34.50
36690;DHT22;22676;51.120;3.702;2023-02-01T15:26:46;25.60;34.50
36690;DHT22;22676;51.120;3.702;2023-02-01T15:29:12;25.60;34.60
36690;DHT22;22676;51.120;3.702;2023-02-01T15:31:39;25.60;34.50
36690;DHT22;22676;51.120;3.702;2023-02-01T15:34:08;25.70;34.50
36690;DHT22;22676;51.120;3.702;2023-02-01T15:36:34;25.70;34.30
36690;DHT22;22676;51.120;3.702;2023-02-01T15:39:14;25.70;34.80
36690;DHT22;22676;51.120;3.702;2023-02-01T15:41:47;25.60;34.80
36690;DHT22;22676;51.120;3.702;2023-02-01T15:44:22;25.60;35.40
36690;DHT22;22676;51.120;3.702;2023-02-01T15:46:50;25.60;34.60
36690;DHT22;22676;51.120;3.702;2023-02-01T15:49:20;25.50;34.40
36690;DHT22;22676;51.120;3.702;2023-02-01T15:51:48;25.50;34.70
36690;DHT22;22676;51.120;3.702;2023-02-01T15:54:17;25.50;35.00
36690;DHT22;22676;51.120;3.702;2023-02-01T15:56:49;25.50;35.00
36690;DHT22;22676;51.120;3.702;2023-02-01T15:59:19;25.60;34.70
36690;DHT22;22676;51.120;3.702;2023-02-01T16:01:45;25.60;34.70
36690;DHT22;22676;51.120;3.702;2023-02-01T16:06:47;25.60;35.10
36690;DHT22;22676;51.120;3.702;2023-02-01T16:09:14;25.60;34.90
36690;DHT22;22676;51.120;3.702;2023-02-01T16:11:41;25.60;35.00
36690;DHT22;22676;51.120;3.702;2023-02-01T16:14:07;25.50;35.00
36690;DHT22;22676;51.120;3.702;2023-02-01T16:16:32;25.50;35.50
36690;DHT22;22676;51.120;3.702;2023-02-01T16:18:58;25.50;35.30
36690;DHT22;22676;51.120;3.702;2023-02-01T16:21:24;25.60;35.30
36690;DHT22;22676;51.120;3.702;2023-02-01T16:23:50;25.60;35.20
36690;DHT22;22676;51.120;3.702;2023-02-01T16:26:15;25.60;35.20
36690;DHT22;22676;51.120;3.702;2023-02-01T16:28:41;25.60;34.90
36690;DHT22;22676;51.120;3.702;2023-02-01T16:31:09;25.50;35.30
36690;DHT22;22676;51.120;3.702;2023-02-01T16:33:42;25.30;35.40
36690;DHT22;22676;51.120;3.702;2023-02-01T16:36:07;25.20;35.30
36690;DHT22;22676;51.120;3.702;2023-02-01T16:38:33;25.30;35.10
36690;DHT22;22676;51.120;3.702;2023-02-01T16:40:59;25.30;35.00
36690;DHT22;22676;51.120;3.702;2023-02-01T16:43:25;25.30;35.10
36690;DHT22;22676;51.120;3.702;2023-02-01T16:45:54;25.30;35.20
36690;DHT22;22676;51.120;3.702;2023-02-01T16:48:27;25.20;35.40
36690;DHT22;22676;51.120;3.702;2023-02-01T16:50:54;25.20;35.70
36690;DHT22;22676;51.120;3.702;2023-02-01T16:53:20;25.10;35.60
36690;DHT22;22676;51.120;3.702;2023-02-01T16:55:46;25.00;35.80
36690;DHT22;22676;51.120;3.702;2023-02-01T16:58:13;25.00;36.00
36690;DHT22;22676;51.120;3.702;2023-02-01T17:00:38;25.10;36.40
36690;DHT22;22676;51.120;3.702;2023-02-01T17:03:04;25.20;36.50
36690;DHT22;22676;51.120;3.702;2023-02-01T17:05:31;25.20;36.60
36690;DHT22;22676;51.120;3.702;2023-02-01T17:07:57;25.10;36.90
36690;DHT22;22676;51.120;3.702;2023-02-01T17:10:24;25.00;36.90
36690;DHT22;22676;51.120;3.702;2023-02-01T17:12:50;24.90;36.50
36690;DHT22;22676;51.120;3.702;2023-02-01T17:15:16;24.80;36.70
36690;DHT22;22676;51.120;3.702;2023-02-01T17:17:41;24.80;36.80
36690;DHT22;22676;51.120;3.702;2023-02-01T17:20:10;25.00;36.70
36690;DHT22;22676;51.120;3.702;2023-02-01T17:22:40;25.00;36.90
36690;DHT22;22676;51.120;3.702;2023-02-01T17:25:13;24.90;37.10
36690;DHT22;22676;51.120;3.702;2023-02-01T17:27:38;24.80;37.30
36690;DHT22;22676;51.120;3.702;2023-02-01T17:30:06;24.80;37.40
36690;DHT22;22676;51.120;3.702;2023-02-01T17:32:32;24.70;37.10
36690;DHT22;22676;51.120;3.702;2023-02-01T17:34:57;24.70;37.10
36690;DHT22;22676;51.120;3.702;2023-02-01T17:37:25;24.70;37.60
36690;DHT22;22676;51.120;3.702;2023-02-01T17:39:50;24.80;37.90
36690;DHT22;22676;51.120;3.702;2023-02-01T17:42:19;24.90;38.00
36690;DHT22;22676;51.120;3.702;2023-02-01T17:44:44;25.00;37.80
36690;DHT22;22676;51.120;3.702;2023-02-01T17:47:10;24.90;37.80
36690;DHT22;22676;51.120;3.702;2023-02-01T17:49:35;24.80;38.10
36690;DHT22;22676;51.120;3.702;2023-02-01T17:52:03;24.80;37.50
36690;DHT22;22676;51.120;3.702;2023-02-01T17:54:29;24.70;37.80
36690;DHT22;22676;51.120;3.702;2023-02-01T17:56:54;24.70;37.90
36690;DHT22;22676;51.120;3.702;2023-02-01T17:59:24;24.70;38.10
36690;DHT22;22676;51.120;3.702;2023-02-01T18:01:50;24.80;37.10
36690;DHT22;22676;51.120;3.702;2023-02-01T18:04:17;24.90;37.00
36690;DHT22;22676;51.120;3.702;2023-02-01T18:06:43;25.00;37.60
36690;DHT22;22676;51.120;3.702;2023-02-01T18:09:09;25.00;36.90